Time;durP1;ratioP1;P1;durP2;ratioP2;P2;SDS_P1;SDS_P2;PMS_P1;PMS_P2;Temp;Humidity;BMP_temperature;BMP_pressure;BME280_temperature;BME280_humidity;BME280_pressure;Samples;Min_cycle;Max_cycle;Signal;HPM_P1;HPM_P2
2022/09/23 00:01:20;;;;;;;2.67;1.33;;;;;;;;;;4972013;28;20654;-77
2022/09/23 00:03:47;;;;;;;1.67;1.50;;;;;;;;;;4956012;28;20217;-77
2022/09/23 00:06:15;;;;;;;1.87;1.30;;;;;;;;;;4972073;28;20668;-77
2022/09/23 00:08:42;;;;;;;2.23;1.40;;;;;;;;;;4971864;28;20178;-77
2022/09/23 00:11:10;;;;;;;1.40;1.30;;;;;;;;;;4971680;28;20209;-77
2022/09/23 00:13:37;;;;;;;1.40;1.30;;;;;;;;;;4956041;28;20652;-77
2022/09/23 00:16:06;;;;;;;1.33;1.23;;;;;;;;;;4971974;28;20173;-77
2022/09/23 00:18:33;;;;;;;1.60;1.40;;;;;;;;;;4972025;28;20264;-77
2022/09/23 00:21:04;;;;;;;2.57;1.50;;;;;;;;;;4971313;28;20219;-77
2022/09/23 00:23:30;;;;;;;2.27;1.33;;;;;;;;;;4972947;28;20201;-77
2022/09/23 00:25:57;;;;;;;1.50;1.30;;;;;;;;;;4971820;28;20185;-77
2022/09/23 00:28:23;;;;;;;1.60;1.50;;;;;;;;;;4971732;28;20248;-77
2022/09/23 00:30:49;;;;;;;1.93;1.40;;;;;;;;;;4955523;28;20593;-77
2022/09/23 00:33:15;;;;;;;1.50;1.40;;;;;;;;;;4971748;28;20184;-77
2022/09/23 00:35:41;;;;;;;1.90;1.40;;;;;;;;;;4973388;28;20180;-77
2022/09/23 00:38:07;;;;;;;2.90;1.40;;;;;;;;;;4955718;28;20196;-77
2022/09/23 00:40:35;;;;;;;2.23;1.60;;;;;;;;;;4955505;28;20261;-77
2022/09/23 00:43:01;;;;;;;2.23;1.50;;;;;;;;;;4955791;28;20247;-77
2022/09/23 00:45:27;;;;;;;1.43;1.30;;;;;;;;;;4975044;28;20186;-77
2022/09/23 00:48:00;;;;;;;1.83;1.60;;;;;;;;;;4975276;28;20221;-77
2022/09/23 00:50:36;;;;;;;1.83;1.50;;;;;;;;;;4959094;28;20249;-77
2022/09/23 00:53:06;;;;;;;1.87;1.30;;;;;;;;;;4974969;28;20199;-77
2022/09/23 00:55:52;;;;;;;1.70;1.60;;;;;;;;;;4976416;28;20185;-77
2022/09/23 00:58:21;;;;;;;2.60;1.70;;;;;;;;;;4974943;28;20186;-77
2022/09/23 01:00:47;;;;;;;2.20;1.60;;;;;;;;;;4974608;28;20573;-77
2022/09/23 01:03:14;;;;;;;1.67;1.40;;;;;;;;;;4958908;28;20580;-77
2022/09/23 01:05:40;;;;;;;2.00;1.50;;;;;;;;;;4975023;28;20177;-77
2022/09/23 01:08:07;;;;;;;1.57;1.47;;;;;;;;;;4975075;28;20203;-77
2022/09/23 01:10:42;;;;;;;1.50;1.40;;;;;;;;;;4974530;28;20201;-77
2022/09/23 01:13:11;;;;;;;2.80;1.77;;;;;;;;;;4974568;28;20647;-77
2022/09/23 01:15:42;;;;;;;4.23;1.80;;;;;;;;;;4974809;28;20181;-77
2022/09/23 01:18:08;;;;;;;2.37;1.70;;;;;;;;;;4974561;28;20180;-77
2022/09/23 01:20:49;;;;;;;1.50;1.40;;;;;;;;;;4974352;28;20247;-77
2022/09/23 01:23:18;;;;;;;1.70;1.47;;;;;;;;;;4974418;28;20214;-77
2022/09/23 01:26:02;;;;;;;2.60;1.60;;;;;;;;;;4974579;28;20172;-77
2022/09/23 01:28:28;;;;;;;2.00;1.50;;;;;;;;;;4975653;28;20236;-77
2022/09/23 01:30:57;;;;;;;1.73;1.60;;;;;;;;;;4974096;28;20196;-77
2022/09/23 01:33:26;;;;;;;1.70;1.60;;;;;;;;;;4975662;28;20207;-77
2022/09/23 01:36:03;;;;;;;2.63;1.63;;;;;;;;;;4974339;28;20184;-77
2022/09/23 01:38:41;;;;;;;2.43;1.83;;;;;;;;;;4974359;28;20184;-77
2022/09/23 01:41:34;;;;;;;2.20;1.87;;;;;;;;;;4974056;28;20204;-77
2022/09/23 01:44:11;;;;;;;2.37;1.80;;;;;;;;;;4966375;28;20220;-77
2022/09/23 01:46:49;;;;;;;2.27;1.93;;;;;;;;;;4975448;28;20185;-77
2022/09/23 01:49:27;;;;;;;1.50;1.40;;;;;;;;;;4975234;28;20590;-77
2022/09/23 01:51:59;;;;;;;1.87;1.70;;;;;;;;;;4974218;28;20200;-77
2022/09/23 01:54:39;;;;;;;2.30;1.60;;;;;;;;;;4973927;28;20279;-77
2022/09/23 01:57:17;;;;;;;2.00;1.83;;;;;;;;;;4973322;28;20279;-77
2022/09/23 01:59:53;;;;;;;2.03;1.80;;;;;;;;;;4973569;28;20642;-77
2022/09/23 02:02:29;;;;;;;3.60;1.97;;;;;;;;;;4973766;28;20217;-77
2022/09/23 02:05:17;;;;;;;1.80;1.63;;;;;;;;;;4974082;28;20190;-77
2022/09/23 02:07:43;;;;;;;1.60;1.50;;;;;;;;;;4974106;28;20218;-77
2022/09/23 02:10:15;;;;;;;1.90;1.70;;;;;;;;;;4973385;28;20199;-78
2022/09/23 02:12:45;;;;;;;2.00;1.80;;;;;;;;;;4957623;28;20598;-78
2022/09/23 02:15:15;;;;;;;3.30;1.90;;;;;;;;;;4973680;28;20536;-78
2022/09/23 02:17:51;;;;;;;1.80;1.70;;;;;;;;;;4973651;28;20278;-78
2022/09/23 02:20:23;;;;;;;3.13;1.70;;;;;;;;;;4973190;28;20215;-78
2022/09/23 02:22:55;;;;;;;1.90;1.80;;;;;;;;;;4973279;28;20223;-78
2022/09/23 02:25:24;;;;;;;3.47;2.00;;;;;;;;;;4973568;28;20737;-78
2022/09/23 02:28:01;;;;;;;3.10;2.07;;;;;;;;;;4973504;28;20180;-78
2022/09/23 02:30:30;;;;;;;2.03;1.80;;;;;;;;;;4973148;28;20202;-77
2022/09/23 02:33:03;;;;;;;2.03;1.80;;;;;;;;;;4973083;28;20533;-77
2022/09/23 02:35:33;;;;;;;2.63;2.10;;;;;;;;;;4973093;28;20214;-78
2022/09/23 02:38:02;;;;;;;2.93;2.13;;;;;;;;;;4974396;28;20172;-78
2022/09/23 02:40:37;;;;;;;3.33;2.10;;;;;;;;;;4972807;28;20223;-78
2022/09/23 02:43:18;;;;;;;2.40;2.07;;;;;;;;;;4974287;28;20226;-78
2022/09/23 02:45:44;;;;;;;2.67;2.10;;;;;;;;;;4972990;28;20218;-78
2022/09/23 02:48:13;;;;;;;3.10;2.13;;;;;;;;;;4973276;28;20565;-77
2022/09/23 02:50:39;;;;;;;2.63;2.40;;;;;;;;;;4972864;28;20203;-77
2022/09/23 02:53:06;;;;;;;2.93;2.20;;;;;;;;;;4972860;28;20786;-78
2022/09/23 02:55:32;;;;;;;3.20;2.20;;;;;;;;;;4956923;28;20179;-78
2022/09/23 02:58:00;;;;;;;2.23;2.07;;;;;;;;;;4956712;28;20187;-78
2022/09/23 03:00:30;;;;;;;3.10;2.40;;;;;;;;;;4972362;28;20206;-77
2022/09/23 03:03:10;;;;;;;3.17;2.37;;;;;;;;;;4972821;28;20218;-78
2022/09/23 03:05:39;;;;;;;4.50;2.20;;;;;;;;;;4974118;28;20186;-77
2022/09/23 03:08:24;;;;;;;2.33;2.13;;;;;;;;;;4972450;28;20186;-78
2022/09/23 03:11:05;;;;;;;3.13;2.53;;;;;;;;;;4973666;28;20185;-78
2022/09/23 03:13:42;;;;;;;3.50;2.30;;;;;;;;;;4972491;28;20242;-78
2022/09/23 03:16:11;;;;;;;3.57;2.53;;;;;;;;;;4972626;28;20194;-78
2022/09/23 03:18:53;;;;;;;2.90;2.43;;;;;;;;;;4973772;28;20678;-77
2022/09/23 03:21:23;;;;;;;2.47;2.27;;;;;;;;;;4972327;28;20241;-77
2022/09/23 03:23:49;;;;;;;2.40;2.13;;;;;;;;;;4972096;28;20266;-77
2022/09/23 03:26:21;;;;;;;2.43;2.20;;;;;;;;;;4972187;28;20681;-77
2022/09/23 03:28:49;;;;;;;2.70;2.47;;;;;;;;;;4972085;28;20182;-77
2022/09/23 03:31:15;;;;;;;3.77;2.23;;;;;;;;;;4972292;28;20209;-77
2022/09/23 03:33:43;;;;;;;2.77;2.00;;;;;;;;;;4972377;28;20267;-77
2022/09/23 03:38:58;;;;;;;2.63;1.90;;;;;;;;;;4972763;28;20202;-77
2022/09/23 03:41:30;;;;;;;2.57;2.10;;;;;;;;;;4972040;28;20581;-77
2022/09/23 03:43:58;;;;;;;2.60;2.17;;;;;;;;;;4956187;28;20212;-77
2022/09/23 03:46:27;;;;;;;2.30;2.00;;;;;;;;;;4972382;28;20238;-77
2022/09/23 03:48:58;;;;;;;4.03;2.40;;;;;;;;;;4973090;28;20184;-77
2022/09/23 03:51:24;;;;;;;2.30;2.10;;;;;;;;;;4972998;28;20201;-77
2022/09/23 03:53:50;;;;;;;4.30;2.30;;;;;;;;;;4956244;28;20190;-77
2022/09/23 03:56:16;;;;;;;2.53;2.10;;;;;;;;;;4956289;28;20188;-77
2022/09/23 03:58:45;;;;;;;3.57;2.40;;;;;;;;;;4956011;28;20291;-77
2022/09/23 04:01:13;;;;;;;3.73;2.50;;;;;;;;;;4972145;28;20209;-77
2022/09/23 04:03:40;;;;;;;3.77;2.50;;;;;;;;;;4956290;28;20217;-77
2022/09/23 04:06:06;;;;;;;2.40;2.20;;;;;;;;;;4971955;28;20187;-77
2022/09/23 04:08:32;;;;;;;3.20;2.20;;;;;;;;;;4973162;28;20252;-77
2022/09/23 04:11:02;;;;;;;2.90;2.17;;;;;;;;;;4955691;28;20572;-77
2022/09/23 04:13:28;;;;;;;2.57;2.30;;;;;;;;;;4972116;28;20182;-77
2022/09/23 04:15:54;;;;;;;2.70;2.30;;;;;;;;;;4972139;28;20274;-77
2022/09/23 04:18:20;;;;;;;2.30;2.10;;;;;;;;;;4972097;28;20194;-77
2022/09/23 04:20:47;;;;;;;3.17;2.57;;;;;;;;;;4975474;28;20685;-77
2022/09/23 04:23:13;;;;;;;2.60;2.40;;;;;;;;;;4975619;28;20202;-77
2022/09/23 04:25:49;;;;;;;2.47;2.07;;;;;;;;;;4975392;28;20190;-77
2022/09/23 04:28:15;;;;;;;3.30;2.40;;;;;;;;;;4975781;28;20281;-77
2022/09/23 04:30:42;;;;;;;3.00;2.17;;;;;;;;;;4975422;28;20233;-77
2022/09/23 04:33:09;;;;;;;2.90;2.50;;;;;;;;;;4959451;28;20195;-77
2022/09/23 04:35:37;;;;;;;3.03;2.50;;;;;;;;;;4976590;28;20203;-77
2022/09/23 04:38:03;;;;;;;2.97;2.67;;;;;;;;;;4976583;28;20184;-77
2022/09/23 04:40:29;;;;;;;2.23;2.03;;;;;;;;;;4975095;28;20212;-77
2022/09/23 04:42:55;;;;;;;2.93;2.43;;;;;;;;;;4959210;28;20298;-77
2022/09/23 04:45:21;;;;;;;2.53;2.33;;;;;;;;;;4959410;28;20639;-77
2022/09/23 04:47:47;;;;;;;3.40;2.47;;;;;;;;;;4959206;28;20184;-77
2022/09/23 04:50:13;;;;;;;2.53;2.33;;;;;;;;;;4975255;28;20194;-77
2022/09/23 04:52:39;;;;;;;2.80;2.50;;;;;;;;;;4959080;28;20186;-77
2022/09/23 04:55:06;;;;;;;4.23;2.50;;;;;;;;;;4958971;28;20197;-77
2022/09/23 04:57:33;;;;;;;2.73;2.43;;;;;;;;;;4975068;28;20176;-77
2022/09/23 04:59:59;;;;;;;2.90;2.60;;;;;;;;;;4958883;28;20188;-77
2022/09/23 05:02:26;;;;;;;2.60;2.40;;;;;;;;;;4974943;28;20203;-76
2022/09/23 05:04:52;;;;;;;3.53;2.70;;;;;;;;;;4975014;28;20237;-76
2022/09/23 05:07:18;;;;;;;4.67;2.60;;;;;;;;;;4958816;28;20177;-76
2022/09/23 05:09:45;;;;;;;3.23;2.57;;;;;;;;;;4974832;28;20182;-75
2022/09/23 05:12:11;;;;;;;2.90;2.60;;;;;;;;;;4974773;28;20238;-76
2022/09/23 05:14:40;;;;;;;3.70;2.53;;;;;;;;;;4974871;28;20186;-76
2022/09/23 05:17:06;;;;;;;2.50;2.30;;;;;;;;;;4975714;28;20653;-75
2022/09/23 05:19:32;;;;;;;2.83;2.43;;;;;;;;;;4975879;28;20549;-76
2022/09/23 05:21:58;;;;;;;3.77;2.30;;;;;;;;;;4994657;23;20566;-76
2022/09/23 05:24:25;;;;;;;3.60;2.50;;;;;;;;;;4990735;28;20187;-77
2022/09/23 05:26:51;;;;;;;4.00;2.70;;;;;;;;;;4974573;28;20191;-76
2022/09/23 05:29:17;;;;;;;3.63;2.70;;;;;;;;;;4974230;28;20181;-77
2022/09/23 05:31:43;;;;;;;3.03;2.60;;;;;;;;;;4971124;28;20200;-76
2022/09/23 05:34:09;;;;;;;2.90;2.67;;;;;;;;;;4971281;28;20247;-76
2022/09/23 05:36:36;;;;;;;3.03;2.43;;;;;;;;;;4955086;28;20184;-78
2022/09/23 05:39:03;;;;;;;2.60;2.40;;;;;;;;;;4970980;28;20191;-77
2022/09/23 05:41:29;;;;;;;3.93;2.77;;;;;;;;;;4971513;28;20211;-76
2022/09/23 05:43:55;;;;;;;3.73;2.73;;;;;;;;;;4955268;28;20218;-76
2022/09/23 05:46:23;;;;;;;2.77;2.47;;;;;;;;;;4956631;28;20204;-78
2022/09/23 05:48:49;;;;;;;2.83;2.57;;;;;;;;;;4970959;28;20179;-76
2022/09/23 05:51:17;;;;;;;2.77;2.57;;;;;;;;;;4956337;28;20221;-77
2022/09/23 05:53:44;;;;;;;2.93;2.67;;;;;;;;;;4971123;28;20180;-79
2022/09/23 05:56:10;;;;;;;3.53;2.50;;;;;;;;;;4970740;28;20198;-78
2022/09/23 05:58:36;;;;;;;3.03;2.73;;;;;;;;;;4954978;28;20200;-78
2022/09/23 06:01:08;;;;;;;4.90;2.60;;;;;;;;;;4954705;28;20219;-78
2022/09/23 06:03:34;;;;;;;2.73;2.53;;;;;;;;;;4970882;28;20250;-79
2022/09/23 06:06:00;;;;;;;2.97;2.60;;;;;;;;;;4971049;28;20186;-78
2022/09/23 06:08:26;;;;;;;3.30;2.90;;;;;;;;;;4970861;28;20183;-77
2022/09/23 06:10:52;;;;;;;3.07;2.77;;;;;;;;;;4954336;28;20202;-76
2022/09/23 06:13:18;;;;;;;3.27;2.70;;;;;;;;;;4954295;28;20582;-76
2022/09/23 06:15:44;;;;;;;3.00;2.70;;;;;;;;;;4954397;28;20190;-76
2022/09/23 06:18:11;;;;;;;3.83;2.60;;;;;;;;;;4970363;28;20180;-76
2022/09/23 06:20:37;;;;;;;2.83;2.53;;;;;;;;;;4970425;28;20306;-75
2022/09/23 06:23:04;;;;;;;5.10;3.17;;;;;;;;;;4970102;28;20264;-76
2022/09/23 06:25:31;;;;;;;3.40;3.00;;;;;;;;;;4954062;28;20182;-75
2022/09/23 06:27:57;;;;;;;3.20;2.90;;;;;;;;;;4970345;28;20187;-75
2022/09/23 06:30:25;;;;;;;3.90;3.27;;;;;;;;;;4970200;28;20207;-75
2022/09/23 06:32:52;;;;;;;3.13;2.83;;;;;;;;;;4970063;28;20191;-77
2022/09/23 06:35:18;;;;;;;4.57;2.90;;;;;;;;;;4951069;28;20195;-77
2022/09/23 06:37:45;;;;;;;3.80;2.97;;;;;;;;;;4966975;28;20185;-75
2022/09/23 06:40:11;;;;;;;3.40;2.90;;;;;;;;;;4970139;28;20632;-78
2022/09/23 06:42:38;;;;;;;4.20;3.10;;;;;;;;;;4968135;28;20203;-75
2022/09/23 06:45:04;;;;;;;5.03;3.00;;;;;;;;;;4953426;28;20237;-76
2022/09/23 06:47:30;;;;;;;3.57;3.00;;;;;;;;;;4969534;28;20185;-77
2022/09/23 06:49:56;;;;;;;5.33;3.30;;;;;;;;;;4969631;28;20184;-77
2022/09/23 06:52:22;;;;;;;3.67;3.37;;;;;;;;;;4952973;28;20247;-77
2022/09/23 06:54:48;;;;;;;3.97;3.57;;;;;;;;;;4952998;28;20718;-77
2022/09/23 06:57:14;;;;;;;6.77;3.60;;;;;;;;;;4953623;28;20352;-77
2022/09/23 06:59:40;;;;;;;3.77;3.20;;;;;;;;;;4953356;28;20220;-77
2022/09/23 07:02:07;;;;;;;4.27;3.50;;;;;;;;;;4948332;28;20213;-77
2022/09/23 07:04:33;;;;;;;3.50;3.23;;;;;;;;;;4951406;28;20224;-77
2022/09/23 07:06:59;;;;;;;3.70;3.40;;;;;;;;;;4957981;28;20275;-78
2022/09/23 07:09:26;;;;;;;3.63;3.27;;;;;;;;;;4942007;29;20756;-78
2022/09/23 07:11:52;;;;;;;4.00;3.70;;;;;;;;;;4953630;28;20208;-78
2022/09/23 07:14:18;;;;;;;4.03;3.63;;;;;;;;;;4969874;28;20559;-78
2022/09/23 07:17:16;;;;;;;4.13;3.83;;;;;;;;;;4970001;28;20187;-78
2022/09/23 07:19:42;;;;;;;3.83;3.50;;;;;;;;;;4969819;28;20181;-78
2022/09/23 07:22:09;;;;;;;4.23;3.60;;;;;;;;;;4953528;28;20220;-78
2022/09/23 07:24:36;;;;;;;3.97;3.47;;;;;;;;;;4970175;28;20184;-78
2022/09/23 07:27:02;;;;;;;4.03;3.63;;;;;;;;;;4954103;29;20177;-78
2022/09/23 07:29:28;;;;;;;3.70;3.40;;;;;;;;;;4969617;28;20583;-78
2022/09/23 07:31:54;;;;;;;4.80;4.20;;;;;;;;;;4953643;28;20201;-79
2022/09/23 07:34:20;;;;;;;4.63;3.77;;;;;;;;;;4953655;28;20189;-78
2022/09/23 07:36:46;;;;;;;4.47;3.50;;;;;;;;;;4924969;29;20193;-78
2022/09/23 07:39:13;;;;;;;4.10;3.70;;;;;;;;;;4969117;28;20189;-78
2022/09/23 07:41:40;;;;;;;3.80;3.50;;;;;;;;;;4969390;28;20670;-78
2022/09/23 07:44:10;;;;;;;4.20;3.80;;;;;;;;;;4968679;28;20198;-78
2022/09/23 07:46:36;;;;;;;4.30;3.90;;;;;;;;;;4969646;28;20179;-78
2022/09/23 07:49:04;;;;;;;5.27;3.80;;;;;;;;;;4969226;28;20189;-78
2022/09/23 07:51:31;;;;;;;4.87;3.80;;;;;;;;;;4969537;28;20663;-78
2022/09/23 07:53:57;;;;;;;4.00;3.70;;;;;;;;;;4955084;28;20613;-79
2022/09/23 07:56:25;;;;;;;3.87;3.50;;;;;;;;;;4973839;28;20187;-78
2022/09/23 07:59:02;;;;;;;4.80;3.60;;;;;;;;;;4973331;28;20191;-76
2022/09/23 08:01:39;;;;;;;4.00;3.60;;;;;;;;;;4973584;28;20270;-78
2022/09/23 08:07:11;;;;;;;5.30;3.87;;;;;;;;;;4958602;29;20166;-78
2022/09/23 08:09:40;;;;;;;5.10;3.70;;;;;;;;;;4973636;28;20179;-78
2022/09/23 08:12:15;;;;;;;6.07;4.40;;;;;;;;;;4973433;28;20207;-78
2022/09/23 08:14:42;;;;;;;4.43;4.00;;;;;;;;;;4973282;28;20274;-78
2022/09/23 08:17:08;;;;;;;4.10;3.70;;;;;;;;;;4957441;28;20192;-78
2022/09/23 08:19:34;;;;;;;4.03;3.53;;;;;;;;;;4958500;28;20657;-78
2022/09/23 08:22:00;;;;;;;4.20;3.80;;;;;;;;;;4957308;28;20219;-78
2022/09/23 08:24:29;;;;;;;3.83;3.50;;;;;;;;;;4973136;28;20272;-78
2022/09/23 08:26:55;;;;;;;4.17;3.53;;;;;;;;;;4973339;28;20185;-78
2022/09/23 08:29:22;;;;;;;4.30;3.63;;;;;;;;;;4973185;28;20177;-78
2022/09/23 08:31:48;;;;;;;5.27;3.87;;;;;;;;;;4956738;28;20208;-78
2022/09/23 08:34:15;;;;;;;4.20;3.80;;;;;;;;;;4973318;28;20274;-78
2022/09/23 08:36:41;;;;;;;4.07;3.40;;;;;;;;;;4957017;28;20185;-78
2022/09/23 08:39:07;;;;;;;6.00;3.67;;;;;;;;;;4956896;28;20666;-78
2022/09/23 08:41:49;;;;;;;4.03;3.73;;;;;;;;;;4973005;28;20196;-78
2022/09/23 08:44:33;;;;;;;5.80;3.90;;;;;;;;;;4957734;28;20240;-78
2022/09/23 08:46:59;;;;;;;4.70;3.73;;;;;;;;;;4972766;28;20181;-78
2022/09/23 08:49:30;;;;;;;4.03;3.53;;;;;;;;;;4972492;28;20184;-78
2022/09/23 08:51:59;;;;;;;5.47;3.37;;;;;;;;;;4972852;28;20200;-78
2022/09/23 08:54:26;;;;;;;3.60;2.87;;;;;;;;;;4972396;28;20183;-78
2022/09/23 08:56:56;;;;;;;4.07;3.67;;;;;;;;;;4956308;28;20772;-85
2022/09/23 08:59:42;;;;;;;5.47;3.87;;;;;;;;;;4972766;28;20185;-77
2022/09/23 09:02:15;;;;;;;4.77;3.10;;;;;;;;;;4956718;28;20216;-78
2022/09/23 09:04:44;;;;;;;4.40;4.00;;;;;;;;;;4972331;28;20168;-78
2022/09/23 09:07:14;;;;;;;4.03;3.60;;;;;;;;;;4956179;28;20181;-78
2022/09/23 09:09:48;;;;;;;4.10;3.33;;;;;;;;;;4972520;28;20181;-78
2022/09/23 09:12:50;;;;;;;4.20;3.80;;;;;;;;;;4972318;28;20203;-78
2022/09/23 09:15:18;;;;;;;5.10;3.93;;;;;;;;;;4935582;29;20181;-78
2022/09/23 09:18:00;;;;;;;3.87;2.50;;;;;;;;;;4964679;28;20276;-75
2022/09/23 09:20:38;;;;;;;2.47;2.13;;;;;;;;;;4972137;28;20211;-76
2022/09/23 09:23:24;;;;;;;2.73;2.53;;;;;;;;;;4971942;28;20200;-77
2022/09/23 09:25:55;;;;;;;2.40;2.20;;;;;;;;;;4971847;28;20200;-76
2022/09/23 09:28:26;;;;;;;3.50;2.10;;;;;;;;;;4971810;28;20173;-76
2022/09/23 09:30:55;;;;;;;1.93;1.80;;;;;;;;;;4971653;28;20663;-76
2022/09/23 09:33:26;;;;;;;2.70;2.50;;;;;;;;;;4955690;28;20185;-76
2022/09/23 09:35:58;;;;;;;2.20;2.00;;;;;;;;;;4971627;28;20204;-76
2022/09/23 09:38:24;;;;;;;2.20;1.90;;;;;;;;;;4971994;28;20213;-77
2022/09/23 09:40:50;;;;;;;2.70;1.90;;;;;;;;;;4955252;28;20205;-76
2022/09/23 09:43:22;;;;;;;3.40;2.17;;;;;;;;;;4955752;28;20201;-75
2022/09/23 09:46:03;;;;;;;2.30;2.10;;;;;;;;;;4971779;28;20181;-76
2022/09/23 09:48:49;;;;;;;2.00;1.90;;;;;;;;;;4971679;28;20170;-75
2022/09/23 09:51:26;;;;;;;3.07;1.97;;;;;;;;;;4971340;28;20215;-75
2022/09/23 09:53:52;;;;;;;2.30;2.00;;;;;;;;;;4971415;28;20651;-75
2022/09/23 09:56:30;;;;;;;2.10;1.90;;;;;;;;;;4955219;28;20276;-75
2022/09/23 09:59:00;;;;;;;2.23;1.90;;;;;;;;;;4971181;28;20220;-75
2022/09/23 10:01:28;;;;;;;2.80;1.70;;;;;;;;;;4970931;28;20193;-75
2022/09/23 10:03:55;;;;;;;2.00;1.80;;;;;;;;;;4970607;28;20205;-75
2022/09/23 10:06:23;;;;;;;2.20;2.00;;;;;;;;;;4971088;28;20272;-77
2022/09/23 10:09:10;;;;;;;1.80;1.70;;;;;;;;;;4955531;28;20220;-77
2022/09/23 10:11:36;;;;;;;1.77;1.63;;;;;;;;;;4954937;29;20205;-77
2022/09/23 10:14:13;;;;;;;1.63;1.53;;;;;;;;;;4971464;28;20189;-77
2022/09/23 10:16:40;;;;;;;2.23;1.97;;;;;;;;;;4970362;28;20181;-78
2022/09/23 10:19:25;;;;;;;1.93;1.70;;;;;;;;;;4970543;28;20560;-77
2022/09/23 10:21:59;;;;;;;3.37;1.70;;;;;;;;;;4954019;28;20216;-78
2022/09/23 10:24:33;;;;;;;2.00;1.80;;;;;;;;;;4970633;28;20243;-77
2022/09/23 10:27:03;;;;;;;2.10;1.90;;;;;;;;;;4953976;28;20188;-78
2022/09/23 10:29:30;;;;;;;3.33;2.00;;;;;;;;;;4970063;28;20177;-75
2022/09/23 10:32:13;;;;;;;2.20;2.00;;;;;;;;;;4953987;28;20668;-75
2022/09/23 10:34:43;;;;;;;2.70;1.80;;;;;;;;;;4970183;28;20188;-76
2022/09/23 10:37:18;;;;;;;2.07;1.93;;;;;;;;;;4970089;28;20178;-77
2022/09/23 10:48:34;;;;;;;1.63;1.53;;;;;;;;;;4951809;28;20553;-77
2022/09/23 10:51:04;;;;;;;2.17;1.60;;;;;;;;;;4969575;28;20201;-76
2022/09/23 10:53:42;;;;;;;1.73;1.63;;;;;;;;;;4969801;28;20674;-77
2022/09/23 10:56:08;;;;;;;1.77;1.50;;;;;;;;;;4969696;28;20573;-76
2022/09/23 10:58:37;;;;;;;1.80;1.70;;;;;;;;;;4969817;28;20192;-76
2022/09/23 11:01:22;;;;;;;1.80;1.70;;;;;;;;;;4954700;28;20548;-77
2022/09/23 11:03:58;;;;;;;1.70;1.53;;;;;;;;;;4969554;28;20689;-78
2022/09/23 11:06:24;;;;;;;2.30;1.40;;;;;;;;;;4954703;28;20173;-78
2022/09/23 11:08:52;;;;;;;1.60;1.47;;;;;;;;;;4969636;28;20280;-77
2022/09/23 11:11:27;;;;;;;2.43;1.57;;;;;;;;;;4969555;28;20201;-78
2022/09/23 11:14:02;;;;;;;1.50;1.40;;;;;;;;;;4969466;28;20188;-78
2022/09/23 11:16:39;;;;;;;1.40;1.30;;;;;;;;;;4954614;28;20180;-77
2022/09/23 11:19:11;;;;;;;2.13;1.30;;;;;;;;;;4969200;28;20181;-79
2022/09/23 11:21:37;;;;;;;1.63;1.33;;;;;;;;;;5018204;23;20675;-77
2022/09/23 11:24:13;;;;;;;1.40;1.23;;;;;;;;;;4973644;28;20204;-77
2022/09/23 11:26:58;;;;;;;1.70;1.60;;;;;;;;;;4972462;28;20176;-77
2022/09/23 11:29:43;;;;;;;1.63;1.40;;;;;;;;;;4973431;28;20520;-78
2022/09/23 11:32:21;;;;;;;1.87;1.37;;;;;;;;;;4972252;28;20662;-77
2022/09/23 11:34:56;;;;;;;1.40;1.30;;;;;;;;;;4973502;28;20677;-77
2022/09/23 11:37:36;;;;;;;1.60;1.50;;;;;;;;;;4972529;28;20602;-77
2022/09/23 11:40:21;;;;;;;2.20;1.50;;;;;;;;;;4972060;28;20187;-77
2022/09/23 11:42:59;;;;;;;1.70;1.47;;;;;;;;;;4972210;28;20204;-77
2022/09/23 11:45:29;;;;;;;2.13;1.63;;;;;;;;;;4973350;28;20183;-80
2022/09/23 11:48:03;;;;;;;2.03;1.83;;;;;;;;;;5150248;22;20219;-77
2022/09/23 11:50:42;;;;;;;1.40;1.30;;;;;;;;;;4993786;28;20179;-77
2022/09/23 11:53:08;;;;;;;3.93;1.50;;;;;;;;;;4991700;28;20171;-77
2022/09/23 11:55:43;;;;;;;3.03;1.40;;;;;;;;;;4991767;28;20179;-77
2022/09/23 11:58:22;;;;;;;1.63;1.50;;;;;;;;;;4991899;28;20542;-77
2022/09/23 16:10:50;;;;;;;4.13;2.13;;;;;;;;;;5981444;23;20254;-77
2022/09/23 16:13:16;;;;;;;3.97;2.80;;;;;;;;;;4988906;28;20589;-77
2022/09/23 16:15:42;;;;;;;4.07;2.50;;;;;;;;;;4993751;28;20270;-78
2022/09/23 16:18:10;;;;;;;2.93;2.63;;;;;;;;;;4995391;28;20638;-78
2022/09/23 16:20:37;;;;;;;3.30;3.00;;;;;;;;;;4978323;28;20188;-78
2022/09/23 16:23:08;;;;;;;5.67;3.00;;;;;;;;;;4959948;28;20208;-76
2022/09/23 16:25:37;;;;;;;3.13;2.80;;;;;;;;;;4963211;28;20196;-78
2022/09/23 16:28:03;;;;;;;3.77;2.50;;;;;;;;;;4972493;28;20631;-79
2022/09/23 16:30:30;;;;;;;3.17;2.40;;;;;;;;;;4987800;28;20168;-78
2022/09/23 16:32:57;;;;;;;3.27;2.67;;;;;;;;;;4993957;28;20283;-79
2022/09/23 16:35:25;;;;;;;3.47;2.57;;;;;;;;;;4984759;28;20191;-79
2022/09/23 16:37:51;;;;;;;3.00;2.70;;;;;;;;;;4971243;28;20255;-79
2022/09/23 16:40:19;;;;;;;3.93;2.80;;;;;;;;;;4976460;28;20203;-79
2022/09/23 16:42:46;;;;;;;3.07;2.57;;;;;;;;;;4990019;28;20210;-79
2022/09/23 16:45:12;;;;;;;3.77;2.80;;;;;;;;;;4969526;28;20194;-79
2022/09/23 16:47:45;;;;;;;2.60;2.20;;;;;;;;;;4968019;28;20188;-79
2022/09/23 16:50:15;;;;;;;3.70;1.83;;;;;;;;;;4997400;28;20172;-79
2022/09/23 16:52:41;;;;;;;2.87;2.07;;;;;;;;;;4979422;28;20666;-79
2022/09/23 16:55:07;;;;;;;3.27;2.40;;;;;;;;;;4960884;28;20179;-80
2022/09/23 16:57:35;;;;;;;2.97;2.40;;;;;;;;;;4976294;28;20183;-80
2022/09/23 17:05:32;;;;;;;4.50;2.43;;;;;;;;;;4958551;29;20625;-81
2022/09/23 17:07:59;;;;;;;2.63;1.97;;;;;;;;;;4940867;29;20181;-80
2022/09/23 17:10:25;;;;;;;2.60;2.40;;;;;;;;;;4943421;28;20321;-81
2022/09/23 17:12:53;;;;;;;3.50;2.17;;;;;;;;;;4974255;28;20217;-80
2022/09/23 17:15:19;;;;;;;3.10;2.10;;;;;;;;;;4973693;28;20203;-80
2022/09/23 17:17:45;;;;;;;2.30;2.10;;;;;;;;;;4973676;28;20225;-79
2022/09/23 17:20:13;;;;;;;2.83;1.93;;;;;;;;;;4941240;29;20189;-79
2022/09/23 17:22:39;;;;;;;2.50;2.30;;;;;;;;;;4941308;29;20290;-80
2022/09/23 17:25:06;;;;;;;4.43;2.30;;;;;;;;;;4975886;28;20195;-80
2022/09/23 17:27:32;;;;;;;2.87;2.57;;;;;;;;;;4976209;28;20239;-80
2022/09/23 17:29:58;;;;;;;5.40;2.80;;;;;;;;;;4977621;28;20260;-79
2022/09/23 17:32:24;;;;;;;3.93;3.00;;;;;;;;;;4977344;28;20220;-80
2022/09/23 17:34:50;;;;;;;4.63;2.67;;;;;;;;;;4959907;28;20204;-79
2022/09/23 17:37:16;;;;;;;5.03;2.63;;;;;;;;;;4977770;28;20173;-79
2022/09/23 17:39:42;;;;;;;3.27;2.37;;;;;;;;;;4975902;28;20180;-81
2022/09/23 17:42:09;;;;;;;3.63;2.50;;;;;;;;;;4960177;28;20204;-80
2022/09/23 17:44:35;;;;;;;3.30;2.50;;;;;;;;;;4975548;28;20227;-80
2022/09/23 17:47:02;;;;;;;3.40;2.40;;;;;;;;;;4959036;28;20588;-78
2022/09/23 17:49:34;;;;;;;3.20;2.30;;;;;;;;;;4974921;28;20223;-78
2022/09/23 17:52:03;;;;;;;3.23;2.40;;;;;;;;;;4975154;28;20197;-78
2022/09/23 17:54:30;;;;;;;3.97;2.70;;;;;;;;;;4975430;28;20176;-78
2022/09/23 17:56:56;;;;;;;2.80;2.60;;;;;;;;;;4959580;28;20552;-79
2022/09/23 17:59:22;;;;;;;3.50;3.07;;;;;;;;;;4959144;28;20181;-81
2022/09/23 18:01:48;;;;;;;4.07;3.20;;;;;;;;;;4974649;28;20204;-79
2022/09/23 18:04:14;;;;;;;3.57;3.17;;;;;;;;;;4958904;28;20196;-78
2022/09/23 18:06:40;;;;;;;3.50;3.20;;;;;;;;;;4959111;28;20701;-78
2022/09/23 18:09:07;;;;;;;4.03;3.40;;;;;;;;;;4974767;28;20176;-78
2022/09/23 18:11:38;;;;;;;3.40;3.10;;;;;;;;;;4974261;28;20227;-78
2022/09/23 18:14:11;;;;;;;3.70;3.33;;;;;;;;;;4974572;28;20268;-78
2022/09/23 18:16:39;;;;;;;4.67;3.43;;;;;;;;;;4974793;28;20180;-78
2022/09/23 18:19:05;;;;;;;3.40;3.07;;;;;;;;;;4975430;28;20173;-78
2022/09/23 18:21:33;;;;;;;4.00;3.60;;;;;;;;;;4974648;28;20254;-76
2022/09/23 18:23:59;;;;;;;5.00;3.40;;;;;;;;;;4974757;28;20287;-78
2022/09/23 18:26:26;;;;;;;3.93;3.47;;;;;;;;;;4974261;28;20180;-78
2022/09/23 18:28:55;;;;;;;5.63;4.60;;;;;;;;;;4973880;28;20215;-78
2022/09/23 18:31:22;;;;;;;8.57;6.10;;;;;;;;;;4974155;28;20529;-78
2022/09/23 18:33:52;;;;;;;4.07;3.60;;;;;;;;;;4958627;28;20265;-78
2022/09/23 18:36:22;;;;;;;4.10;3.50;;;;;;;;;;4974367;28;20204;-78
2022/09/23 18:38:49;;;;;;;5.57;3.60;;;;;;;;;;4973192;28;20209;-78
2022/09/23 18:41:15;;;;;;;4.07;3.30;;;;;;;;;;4974094;28;20227;-78
2022/09/23 18:43:41;;;;;;;4.27;3.50;;;;;;;;;;4957999;28;20204;-78
2022/09/23 18:46:12;;;;;;;3.93;3.30;;;;;;;;;;4957977;28;20191;-78
2022/09/23 18:51:28;;;;;;;3.40;3.10;;;;;;;;;;4975305;28;20219;-78
2022/09/23 18:53:58;;;;;;;3.50;3.13;;;;;;;;;;4973929;28;20168;-78
2022/09/23 18:56:25;;;;;;;4.73;2.93;;;;;;;;;;4973785;28;20177;-78
2022/09/23 18:58:53;;;;;;;3.50;3.17;;;;;;;;;;4957753;28;20187;-78
2022/09/23 19:01:19;;;;;;;3.83;2.90;;;;;;;;;;4973949;28;20202;-78
2022/09/23 19:03:46;;;;;;;3.67;2.80;;;;;;;;;;4974683;28;20567;-78
2022/09/23 19:06:13;;;;;;;5.17;2.93;;;;;;;;;;4957440;28;20180;-78
2022/09/23 19:08:39;;;;;;;4.13;2.80;;;;;;;;;;4973766;28;20628;-78
2022/09/23 19:11:07;;;;;;;3.60;2.80;;;;;;;;;;4973521;28;20218;-78
2022/09/23 19:13:34;;;;;;;4.43;3.23;;;;;;;;;;4973561;28;20177;-78
2022/09/23 19:16:08;;;;;;;5.43;3.10;;;;;;;;;;4957337;28;20192;-78
2022/09/23 19:18:35;;;;;;;3.20;2.90;;;;;;;;;;4973367;28;20557;-78
2022/09/23 19:21:02;;;;;;;3.20;2.90;;;;;;;;;;4973083;28;20204;-78
2022/09/23 19:23:33;;;;;;;3.07;2.77;;;;;;;;;;4973179;28;20572;-78
2022/09/23 19:26:10;;;;;;;3.20;2.90;;;;;;;;;;4973523;28;20160;-78
2022/09/23 19:28:36;;;;;;;3.47;3.07;;;;;;;;;;4957429;28;20279;-78
2022/09/23 19:31:13;;;;;;;4.03;2.90;;;;;;;;;;4957092;28;20568;-78